Time;durP1;ratioP1;P1;durP2;ratioP2;P2;SDS_P1;SDS_P2;PMS_P1;PMS_P2;Temp;Humidity;BMP_temperature;BMP_pressure;BME280_temperature;BME280_humidity;BME280_pressure;Samples;Min_cycle;Max_cycle;Signal;HPM_P1;HPM_P2
2021/01/11 00:00:47;;;;;;;10.25;8.60;;;;;;;-2.52;94.98;99750.34;1670117;84;21157;-65
2021/01/11 00:03:14;;;;;;;12.70;9.18;;;;;;;-2.52;94.98;99750.34;1670725;84;21269;-65
2021/01/11 00:05:41;;;;;;;11.55;8.98;;;;;;;-2.53;95.04;99753.73;1678909;84;21187;-65
2021/01/11 00:08:08;;;;;;;12.53;8.85;;;;;;;-2.52;95.07;99747.79;1685540;84;21062;-65
2021/01/11 00:10:36;;;;;;;11.45;7.85;;;;;;;-2.52;95.07;99740.12;1675075;84;21070;-65
2021/01/11 00:13:04;;;;;;;12.53;9.38;;;;;;;-2.50;95.04;99735.84;1669585;84;21178;-65
2021/01/11 00:15:31;;;;;;;13.85;9.20;;;;;;;-2.49;95.11;99738.86;1689596;84;21235;-65
2021/01/11 00:17:58;;;;;;;14.38;9.83;;;;;;;-2.45;95.16;99737.59;1693051;83;21604;-65
2021/01/11 00:20:26;;;;;;;12.90;9.33;;;;;;;-2.42;95.17;99740.16;1750109;80;21177;-66
2021/01/11 00:22:52;;;;;;;;;;;;;;;-2.39;95.22;99740.17;1735332;81;21149;-65
2021/01/11 00:25:20;;;;;;;10.28;8.23;;;;;;;-2.38;95.12;99740.20;1739872;81;20213;-65
2021/01/11 00:27:48;;;;;;;14.23;8.83;;;;;;;-2.37;95.14;99733.38;1714156;81;21280;-65
2021/01/11 00:30:17;;;;;;;14.68;8.60;;;;;;;-2.33;95.20;99733.81;1684110;82;21128;-65
2021/01/11 00:32:45;;;;;;;13.93;8.63;;;;;;;-2.31;95.16;99728.28;1687262;82;21151;-65
2021/01/11 00:35:14;;;;;;;13.75;8.10;;;;;;;-2.32;95.03;99731.70;1675663;84;21658;-65
2021/01/11 00:37:42;;;;;;;11.53;7.95;;;;;;;-2.31;95.07;99730.84;1682421;84;21085;-65
2021/01/11 00:40:10;;;;;;;13.00;8.73;;;;;;;-2.30;95.08;99728.70;1684910;84;21862;-65
2021/01/11 00:42:38;;;;;;;13.45;9.38;;;;;;;-2.29;95.13;99729.16;1679380;84;21078;-66
2021/01/11 00:45:09;;;;;;;11.30;8.63;;;;;;;-2.26;95.15;99727.89;1681771;83;21017;-65
2021/01/11 00:47:42;;;;;;;9.78;7.65;;;;;;;-2.24;95.12;99727.48;1675292;84;21034;-65
2021/01/11 00:50:10;;;;;;;12.53;8.78;;;;;;;-2.24;95.11;99719.80;1735868;81;21048;-65
2021/01/11 00:52:39;;;;;;;10.85;8.40;;;;;;;-2.23;95.10;99715.54;1738872;81;21206;-65
2021/01/11 00:55:09;;;;;;;13.15;8.58;;;;;;;-2.23;95.07;99717.67;1712237;82;21670;-65
2021/01/11 00:57:37;;;;;;;10.63;7.67;;;;;;;-2.23;95.05;99724.49;1713308;82;21080;-65
2021/01/11 01:00:09;;;;;;;10.43;7.90;;;;;;;-2.21;95.14;99721.50;1741539;81;21178;-66
2021/01/11 01:02:36;;;;;;;12.60;8.23;;;;;;;-2.19;95.18;99725.77;1735578;81;20957;-66
2021/01/11 01:05:09;;;;;;;12.50;8.55;;;;;;;-2.18;95.18;99724.94;1736810;81;22113;-65
2021/01/11 01:07:40;;;;;;;10.60;8.25;;;;;;;-2.14;95.24;99730.92;1711448;82;21064;-65
2021/01/11 01:10:11;;;;;;;12.68;8.58;;;;;;;-2.12;95.24;99735.20;1710443;82;21163;-65
2021/01/11 01:12:39;;;;;;;11.43;8.35;;;;;;;-2.08;95.28;99730.50;1707864;82;21183;-66
2021/01/11 01:15:08;;;;;;;14.87;9.23;;;;;;;-2.05;95.29;99731.80;1739119;81;21159;-65
2021/01/11 01:17:36;;;;;;;9.43;8.18;;;;;;;-2.01;95.22;99726.72;1748229;81;22641;-65
2021/01/11 01:20:06;;;;;;;12.65;9.08;;;;;;;-2.03;95.12;99724.98;1731982;81;21206;-66
2021/01/11 01:22:33;;;;;;;11.70;9.00;;;;;;;-2.03;95.11;99722.43;1733713;81;21095;-65
2021/01/11 01:25:00;;;;;;;11.80;8.75;;;;;;;-2.01;95.14;99723.73;1736194;81;21854;-65
2021/01/11 01:27:27;;;;;;;11.85;8.33;;;;;;;-2.00;95.14;99710.50;1735800;81;21162;-65
2021/01/11 01:29:56;;;;;;;10.53;8.73;;;;;;;-2.00;95.17;99710.50;1671206;84;21148;-65
2021/01/11 01:32:23;;;;;;;11.80;8.90;;;;;;;-1.99;95.19;99710.92;1667094;84;21136;-65
2021/01/11 01:34:50;;;;;;;14.70;8.88;;;;;;;-1.99;95.18;99699.41;1674689;84;21164;-65
2021/01/11 01:37:17;;;;;;;11.78;9.10;;;;;;;-1.97;95.18;99700.28;1667278;84;21182;-65
2021/01/11 01:39:44;;;;;;;10.98;9.18;;;;;;;-1.96;95.17;99699.02;1703515;83;21623;-66
2021/01/11 01:42:11;;;;;;;10.98;9.15;;;;;;;-1.92;95.25;99690.91;1689724;84;21264;-65
2021/01/11 01:44:38;;;;;;;11.90;9.20;;;;;;;-1.91;95.22;99691.33;1687047;84;21666;-65
2021/01/11 01:47:05;;;;;;;11.95;8.70;;;;;;;-1.90;95.24;99693.91;1705029;83;21126;-65
2021/01/11 01:49:33;;;;;;;14.05;9.40;;;;;;;-1.86;95.29;99692.20;1695977;83;21163;-65
2021/01/11 01:52:01;;;;;;;10.70;9.03;;;;;;;-1.84;95.22;99695.20;1699890;83;21623;-66
2021/01/11 01:54:28;;;;;;;12.30;9.35;;;;;;;-1.82;95.29;99687.11;1700992;83;21226;-65
2021/01/11 01:56:58;;;;;;;11.85;9.25;;;;;;;-1.78;95.24;99683.27;1708344;83;21121;-65
2021/01/11 01:59:27;;;;;;;12.70;9.08;;;;;;;-1.77;95.15;99693.50;1701400;83;21125;-65
2021/01/11 02:01:55;;;;;;;11.90;9.38;;;;;;;-1.76;95.22;99686.27;1704015;83;21128;-65
2021/01/11 02:04:22;;;;;;;14.05;9.20;;;;;;;-1.75;95.19;99687.97;1697846;83;21631;-66
2021/01/11 02:07:00;;;;;;;12.45;9.93;;;;;;;-1.73;95.21;99682.43;1707105;83;21661;-65
2021/01/11 02:09:38;;;;;;;12.75;9.33;;;;;;;-1.73;95.18;99687.55;1690414;84;21095;-65
2021/01/11 02:12:22;;;;;;;12.35;9.38;;;;;;;-1.67;95.17;99682.44;1869770;74;22685;-65
2021/01/11 02:15:11;;;;;;;13.00;9.58;;;;;;;-1.70;95.21;99692.67;1827322;75;21012;-65
2021/01/11 02:17:51;;;;;;;17.55;8.98;;;;;;;-1.67;95.23;99687.98;1798947;78;22159;-65
2021/01/11 02:20:47;;;;;;;11.00;8.68;;;;;;;-1.67;95.20;99692.67;1791586;78;21044;-65
2021/01/11 02:24:09;;;;;;;12.07;9.15;;;;;;;-1.67;95.19;99692.67;1794731;78;21006;-65
2021/01/11 02:27:35;;;;;;;15.20;9.60;;;;;;;-1.64;95.30;99684.99;1799259;78;21053;-65
2021/01/11 02:30:32;;;;;;;15.15;10.08;;;;;;;-1.60;95.33;99681.61;1767792;80;21184;-65
2021/01/11 02:33:09;;;;;;;15.40;10.40;;;;;;;-1.56;95.35;99676.48;1773132;80;21622;-65
2021/01/11 02:35:59;;;;;;;13.53;9.95;;;;;;;-1.54;95.34;99679.88;1771141;80;21112;-65
2021/01/11 02:38:28;;;;;;;14.35;9.88;;;;;;;-1.53;95.26;99679.05;1774744;80;21013;-65
2021/01/11 02:40:55;;;;;;;14.13;9.80;;;;;;;-1.54;95.26;99674.76;1721061;82;21296;-65
2021/01/11 02:43:30;;;;;;;14.60;10.00;;;;;;;-1.48;95.24;99673.51;1875047;76;22720;-65
2021/01/11 02:45:58;;;;;;;15.80;10.70;;;;;;;-1.53;95.25;99676.48;1845286;76;20992;-66
2021/01/11 02:48:45;;;;;;;14.73;10.55;;;;;;;-1.52;95.27;99673.06;1849173;77;21364;-65
2021/01/11 02:51:21;;;;;;;13.00;9.78;;;;;;;-1.49;95.32;99676.90;1843120;77;21064;-65
2021/01/11 02:54:06;;;;;;;17.17;10.75;;;;;;;-1.45;95.29;99673.50;1829661;77;21593;-65
2021/01/11 02:57:02;;;;;;;17.17;10.85;;;;;;;-1.47;95.23;99676.05;1836183;77;21016;-65
2021/01/11 02:59:36;;;;;;;18.37;10.75;;;;;;;-1.46;95.17;99670.50;1802001;78;21241;-65
2021/01/11 03:02:09;;;;;;;14.53;10.90;;;;;;;-1.46;95.21;99671.78;1793923;79;21800;-65
2021/01/11 03:04:38;;;;;;;16.12;10.75;;;;;;;-1.45;95.26;99668.38;1793915;79;21052;-65
2021/01/11 03:07:09;;;;;;;14.13;9.73;;;;;;;-1.44;95.26;99668.80;1756843;80;21218;-65
2021/01/11 03:09:42;;;;;;;14.33;10.28;;;;;;;-1.45;95.14;99661.98;1756632;80;22356;-65
2021/01/11 03:12:11;;;;;;;19.67;11.25;;;;;;;-1.44;95.19;99663.67;1757330;80;21162;-65
2021/01/11 03:14:39;;;;;;;15.38;10.90;;;;;;;-1.44;95.19;99663.67;1757945;80;21247;-65
2021/01/11 03:17:07;;;;;;;14.47;10.45;;;;;;;-1.43;95.23;99656.41;1753661;80;21151;-65
2021/01/11 03:19:35;;;;;;;15.78;10.95;;;;;;;-1.41;95.25;99654.71;1758012;80;21665;-65
2021/01/11 03:22:02;;;;;;;16.02;10.05;;;;;;;-1.39;95.29;99650.02;1760440;80;21179;-65
2021/01/11 03:24:29;;;;;;;12.68;10.43;;;;;;;-1.38;95.13;99645.74;1755786;80;21211;-65
2021/01/11 03:26:59;;;;;;;15.88;10.93;;;;;;;-1.37;95.20;99647.47;1747210;81;21646;-65
2021/01/11 03:29:27;;;;;;;15.45;10.23;;;;;;;-1.36;95.21;99646.61;1731246;81;21195;-65
2021/01/11 03:31:55;;;;;;;15.13;10.75;;;;;;;-1.36;95.17;99641.48;1756594;80;22294;-65
2021/01/11 03:34:22;;;;;;;16.85;11.73;;;;;;;-1.37;95.12;99646.19;1737672;81;21208;-65
2021/01/11 03:36:49;;;;;;;15.15;11.00;;;;;;;-1.48;95.16;99617.17;1757616;79;21113;-65
2021/01/11 03:39:16;;;;;;;;;;;;;;;-1.38;95.14;99640.63;1770701;79;22243;-65
2021/01/11 03:41:47;;;;;;;14.60;10.98;;;;;;;-1.39;95.13;99644.05;1768558;78;20212;-66
2021/01/11 03:44:15;;;;;;;19.10;11.68;;;;;;;-1.36;95.27;99644.05;1768254;78;21079;-65
2021/01/11 03:46:42;;;;;;;15.93;11.05;;;;;;;-1.36;95.19;99636.36;1781519;80;21997;-65
2021/01/11 03:49:09;;;;;;;16.85;11.08;;;;;;;-1.38;95.11;99632.94;1787237;79;21139;-65
2021/01/11 03:51:36;;;;;;;;;;;;;;;-1.41;95.05;99632.94;1812426;78;21194;-65
2021/01/11 03:54:03;;;;;;;17.80;12.07;;;;;;;-1.41;95.14;99632.94;1796699;79;20131;-66
2021/01/11 03:56:30;;;;;;;17.12;12.68;;;;;;;-1.43;95.16;99637.20;1797118;79;21183;-67
2021/01/11 03:58:57;;;;;;;25.35;14.68;;;;;;;-1.44;95.18;99631.66;1791144;79;21075;-65
2021/01/11 04:01:27;;;;;;;16.23;12.18;;;;;;;-1.44;95.14;99622.70;1806244;78;21578;-65
2021/01/11 04:03:55;;;;;;;15.50;11.22;;;;;;;-1.48;95.07;99614.17;1806083;78;21187;-65
2021/01/11 04:06:22;;;;;;;16.90;11.78;;;;;;;-1.50;95.11;99617.59;1808718;78;21137;-65
2021/01/11 04:08:49;;;;;;;16.52;11.22;;;;;;;-1.53;95.16;99613.75;1769228;78;21000;-65
2021/01/11 04:11:20;;;;;;;16.73;12.07;;;;;;;-1.53;95.25;99612.47;1766776;78;21142;-65
2021/01/11 04:13:51;;;;;;;14.63;11.40;;;;;;;-1.52;95.27;99614.16;1803130;78;21181;-65
2021/01/11 04:16:18;;;;;;;17.20;11.95;;;;;;;-1.55;95.16;99609.05;1803836;78;21192;-65
2021/01/11 04:18:49;;;;;;;16.12;11.25;;;;;;;-1.56;95.19;99613.32;1804900;78;21135;-65
2021/01/11 04:21:16;;;;;;;17.05;12.03;;;;;;;-1.59;95.20;99607.77;1809313;78;20982;-65
2021/01/11 04:23:44;;;;;;;19.65;12.40;;;;;;;-1.62;95.16;99615.45;1785301;79;21554;-65
2021/01/11 04:26:13;;;;;;;16.87;12.25;;;;;;;-1.64;95.24;99605.63;1806367;78;21178;-65
2021/01/11 04:28:40;;;;;;;17.07;11.50;;;;;;;-1.65;95.34;99603.94;1802603;78;24489;-65
2021/01/11 04:31:07;;;;;;;19.23;13.28;;;;;;;-1.63;95.40;99601.36;1802572;78;21239;-64
2021/01/11 04:33:36;;;;;;;18.87;12.00;;;;;;;-1.62;95.45;99601.38;1777528;78;21206;-65
2021/01/11 04:36:04;;;;;;;15.68;11.55;;;;;;;-1.60;95.41;99597.11;1803210;79;21017;-64
2021/01/11 04:38:34;;;;;;;16.05;12.30;;;;;;;-1.59;95.45;99596.25;1799221;79;21171;-65
2021/01/11 04:41:03;;;;;;;15.30;11.60;;;;;;;-1.54;95.49;99594.09;1803749;78;21814;-65
2021/01/11 04:43:42;;;;;;;18.42;12.35;;;;;;;-1.51;95.47;99595.38;1800420;79;21650;-65
2021/01/11 04:46:09;;;;;;;15.20;11.75;;;;;;;-1.47;95.46;99593.25;1800504;79;20964;-65
2021/01/11 04:48:37;;;;;;;14.80;10.88;;;;;;;-1.46;95.43;99591.11;1811134;78;21614;-65
2021/01/11 04:51:06;;;;;;;16.15;11.75;;;;;;;-1.46;95.37;99594.52;1774557;80;23162;-65
2021/01/11 04:53:35;;;;;;;18.62;13.03;;;;;;;-1.45;95.41;99595.39;1780196;79;21222;-65
2021/01/11 04:56:05;;;;;;;22.48;14.68;;;;;;;-1.43;95.44;99585.98;1793011;79;21124;-65
2021/01/11 04:58:58;;;;;;;20.27;13.55;;;;;;;-1.44;95.38;99590.69;1790731;79;21099;-64
2021/01/11 05:01:27;;;;;;;15.48;11.93;;;;;;;-1.43;95.37;99583.42;1790328;79;21174;-64
2021/01/11 05:03:59;;;;;;;19.17;13.00;;;;;;;-1.43;95.29;99585.98;1797737;79;21040;-65
2021/01/11 05:06:27;;;;;;;19.52;13.88;;;;;;;-1.42;95.35;99590.27;1792009;79;21412;-64
2021/01/11 05:09:04;;;;;;;19.15;13.50;;;;;;;-1.42;95.36;99586.00;1794975;79;21159;-65
2021/01/11 05:11:32;;;;;;;20.35;12.85;;;;;;;-1.40;95.41;99582.13;1787617;79;20993;-65
2021/01/11 05:13:59;;;;;;;19.10;13.08;;;;;;;-1.38;95.40;99584.27;1792505;79;21191;-65
2021/01/11 05:16:26;;;;;;;15.98;12.47;;;;;;;-1.39;95.32;99583.42;1810817;78;21220;-65
2021/01/11 05:18:57;;;;;;;20.57;13.32;;;;;;;-1.36;95.42;99577.45;1812753;78;21689;-65
2021/01/11 05:21:39;;;;;;;19.12;12.43;;;;;;;-1.36;95.37;99575.73;1818428;78;21573;-64
2021/01/11 05:24:30;;;;;;;20.15;12.90;;;;;;;-1.36;95.40;99582.57;1771133;78;21063;-65
2021/01/11 05:27:04;;;;;;;18.65;12.55;;;;;;;-1.37;95.31;99575.75;1765726;80;21127;-64
2021/01/11 05:29:36;;;;;;;15.15;11.38;;;;;;;-1.37;95.31;99576.61;1815807;78;21270;-65
2021/01/11 05:32:06;;;;;;;18.80;12.03;;;;;;;-1.37;95.34;99578.31;1773433;78;21695;-65
2021/01/11 05:34:51;;;;;;;16.67;12.33;;;;;;;-1.37;95.30;99583.44;1809792;78;21044;-65
2021/01/11 05:37:40;;;;;;;18.82;11.38;;;;;;;-1.37;95.35;99575.75;1809726;78;21115;-64
2021/01/11 05:40:14;;;;;;;17.60;12.23;;;;;;;-1.34;95.43;99582.16;1807157;78;21165;-65
2021/01/11 05:42:57;;;;;;;16.73;12.90;;;;;;;-1.34;95.42;99573.19;1807503;78;21202;-65
2021/01/11 05:45:28;;;;;;;14.70;11.08;;;;;;;-1.35;95.32;99581.70;1776458;80;21208;-64
2021/01/11 05:48:05;;;;;;;17.52;11.53;;;;;;;-1.35;95.34;99575.30;1777954;80;21155;-65
2021/01/11 05:50:41;;;;;;;15.83;12.15;;;;;;;-1.33;95.46;99574.88;1782865;80;21010;-67
2021/01/11 05:53:23;;;;;;;20.12;13.00;;;;;;;-1.31;95.37;99585.14;1777104;80;21274;-65
2021/01/11 05:55:52;;;;;;;21.27;15.30;;;;;;;-1.32;95.37;99591.95;1801135;78;21016;-65
2021/01/11 05:58:27;;;;;;;18.65;12.93;;;;;;;-1.31;95.41;99582.58;1774210;80;21222;-65
2021/01/11 06:00:55;;;;;;;17.77;12.90;;;;;;;-1.30;95.41;99582.56;1808689;79;21135;-65
2021/01/11 06:03:22;;;;;;;19.75;13.45;;;;;;;-1.29;95.41;99581.69;1782440;80;20989;-65
2021/01/11 06:05:49;;;;;;;20.20;14.05;;;;;;;-1.26;95.44;99583.00;1780830;80;21599;-65
2021/01/11 06:08:16;;;;;;;19.20;12.98;;;;;;;-1.25;95.43;99583.41;1781345;80;21120;-65
2021/01/11 06:10:46;;;;;;;20.08;14.40;;;;;;;-1.25;95.38;99575.73;1762528;80;22578;-65
2021/01/11 06:13:13;;;;;;;21.20;15.00;;;;;;;-1.26;95.29;99584.28;1775225;79;21094;-65
2021/01/11 06:15:42;;;;;;;17.30;12.33;;;;;;;-1.26;95.37;99576.59;1803484;79;21239;-65
2021/01/11 06:18:12;;;;;;;21.02;14.30;;;;;;;-1.26;95.35;99583.00;1774862;80;20977;-65
2021/01/11 06:20:45;;;;;;;19.75;15.00;;;;;;;-1.25;95.38;99574.45;1781054;80;22229;-65
2021/01/11 06:23:27;;;;;;;26.57;16.42;;;;;;;-1.23;95.32;99574.42;1774457;80;21214;-65
2021/01/11 06:25:54;;;;;;;18.70;13.75;;;;;;;-1.24;95.32;99574.86;1777187;80;21155;-64
2021/01/11 06:28:35;;;;;;;22.02;15.00;;;;;;;-1.23;95.35;99572.74;1774312;80;21633;-64
2021/01/11 06:31:15;;;;;;;17.95;13.58;;;;;;;-1.31;95.43;99550.13;1775991;80;21619;-64
2021/01/11 06:33:44;;;;;;;19.45;14.33;;;;;;;-1.22;95.28;99573.16;1777447;80;22055;-65
2021/01/11 06:36:34;;;;;;;20.08;14.23;;;;;;;-1.24;95.22;99574.86;1770190;80;22191;-65
2021/01/11 06:39:09;;;;;;;17.50;12.98;;;;;;;-1.25;95.27;99571.88;1768655;79;21625;-64
2021/01/11 06:41:37;;;;;;;15.85;12.65;;;;;;;-1.24;95.29;99579.98;1777502;80;21084;-63
2021/01/11 06:44:08;;;;;;;16.70;12.58;;;;;;;-1.23;95.31;99574.02;1777247;79;21072;-64
2021/01/11 06:46:43;;;;;;;37.65;23.87;;;;;;;-1.23;95.33;99572.74;1776904;80;21193;-64
2021/01/11 06:49:27;;;;;;;27.02;16.75;;;;;;;-1.22;95.27;99573.16;1770069;79;22191;-64
2021/01/11 06:52:14;;;;;;;20.12;14.90;;;;;;;-1.23;95.22;99565.05;1772077;80;28903;-64
2021/01/11 06:54:44;;;;;;;20.12;13.50;;;;;;;-1.23;95.29;99557.38;1753597;80;21153;-65
2021/01/11 06:59:57;;;;;;;19.85;14.28;;;;;;;-1.16;95.30;99567.16;1783182;79;22352;-64
2021/01/11 07:02:26;;;;;;;21.42;14.05;;;;;;;-1.21;95.30;99572.28;1757914;80;21022;-64
2021/01/11 07:04:54;;;;;;;18.23;13.70;;;;;;;-1.19;95.30;99571.02;1750913;80;21345;-64
2021/01/11 07:07:24;;;;;;;21.37;15.83;;;;;;;-1.16;95.42;99580.82;1762673;80;21055;-64
2021/01/11 07:09:55;;;;;;;20.82;14.98;;;;;;;-1.14;95.34;99580.40;1757376;80;21057;-64
2021/01/11 07:12:23;;;;;;;20.02;13.65;;;;;;;-1.13;95.37;99568.00;1753451;80;21001;-64
2021/01/11 07:15:11;;;;;;;19.00;13.38;;;;;;;-1.10;95.31;99567.14;1757685;80;21012;-64
2021/01/11 07:17:52;;;;;;;17.92;12.90;;;;;;;-1.11;95.17;99567.16;1753940;81;21171;-64
2021/01/11 07:20:48;;;;;;;20.27;14.00;;;;;;;-1.11;95.17;99556.91;1754796;80;21113;-63
2021/01/11 07:23:21;;;;;;;19.42;12.90;;;;;;;-1.12;95.15;99563.76;1758485;80;20954;-64
2021/01/11 07:25:51;;;;;;;21.60;14.87;;;;;;;-1.11;95.11;99567.16;1758043;80;21167;-64
2021/01/11 07:28:18;;;;;;;20.12;14.98;;;;;;;-1.14;95.19;99568.87;1761615;80;21092;-63
2021/01/11 07:30:47;;;;;;;16.45;11.93;;;;;;;-1.10;95.25;99566.30;1753112;80;22616;-64
2021/01/11 07:33:14;;;;;;;19.02;13.60;;;;;;;-1.05;95.29;99573.55;1753971;80;21168;-64
2021/01/11 07:35:41;;;;;;;22.62;14.50;;;;;;;-1.06;95.19;99575.70;1757639;80;21080;-64
2021/01/11 07:38:12;;;;;;;19.90;13.53;;;;;;;-1.05;95.30;99568.42;1758769;80;21099;-64
2021/01/11 07:40:39;;;;;;;20.17;13.75;;;;;;;-1.02;95.24;99568.41;1760764;80;21192;-64
2021/01/11 07:43:07;;;;;;;21.17;15.18;;;;;;;-1.02;95.18;99567.13;1756519;80;22552;-64
2021/01/11 07:45:35;;;;;;;22.70;15.78;;;;;;;-0.98;95.29;99571.38;1754511;80;21100;-64
2021/01/11 07:48:06;;;;;;;25.27;17.73;;;;;;;-0.95;95.20;99567.55;1756583;80;21009;-64
2021/01/11 07:50:35;;;;;;;20.32;15.63;;;;;;;-0.93;95.25;99560.25;1760563;80;21210;-63
2021/01/11 07:53:02;;;;;;;27.40;19.45;;;;;;;-0.88;95.23;99566.66;1755827;80;21035;-64
2021/01/11 07:55:33;;;;;;;27.07;20.20;;;;;;;-0.80;95.43;99561.51;1761065;80;21163;-62
2021/01/11 07:58:02;;;;;;;34.33;26.33;;;;;;;-0.74;95.36;99561.05;1754479;80;21241;-64
2021/01/11 08:00:30;;;;;;;32.40;23.18;;;;;;;-0.70;95.23;99574.29;1746560;81;21096;-64
2021/01/11 08:02:58;;;;;;;28.02;20.02;;;;;;;-0.69;95.17;99573.42;1743082;82;21572;-63
2021/01/11 08:05:26;;;;;;;28.98;20.68;;;;;;;-0.68;95.06;99563.58;1748334;82;21183;-64
2021/01/11 08:08:07;;;;;;;30.92;19.20;;;;;;;-0.63;95.18;99567.84;1748636;81;22081;-63
2021/01/11 08:10:36;;;;;;;35.17;21.87;;;;;;;-0.60;95.05;99562.70;1748909;81;21152;-64
2021/01/11 08:13:12;;;;;;;24.25;17.15;;;;;;;-0.55;95.00;99576.36;1746357;81;21013;-64
2021/01/11 08:15:40;;;;;;;22.50;17.50;;;;;;;-0.55;94.94;99572.52;1741044;81;21088;-64
2021/01/11 08:18:09;;;;;;;22.42;16.93;;;;;;;-0.51;94.98;99574.19;1745612;82;21192;-64
2021/01/11 08:20:36;;;;;;;22.50;16.85;;;;;;;-0.50;94.87;99569.50;1747636;81;22696;-64
2021/01/11 08:23:08;;;;;;;20.23;15.32;;;;;;;-0.46;94.91;99571.18;1748833;82;21127;-64
2021/01/11 08:25:38;;;;;;;21.90;13.90;;;;;;;-0.42;94.98;99572.89;1743622;81;21610;-64
2021/01/11 08:28:05;;;;;;;20.43;15.80;;;;;;;-0.37;94.96;99569.84;1748446;82;21183;-64
2021/01/11 08:30:33;;;;;;;;;;;;;;;-0.37;94.87;99569.84;1727338;82;21123;-64
2021/01/11 08:33:09;;;;;;;19.30;14.78;;;;;;;-0.33;94.82;99564.28;1743625;81;21121;-64
2021/01/11 08:35:36;;;;;;;18.20;13.58;;;;;;;-0.30;94.94;99567.67;1732417;82;21638;-64
2021/01/11 08:38:05;;;;;;;18.32;14.10;;;;;;;-0.28;94.81;99564.68;1737645;81;20972;-64
2021/01/11 08:40:33;;;;;;;24.07;16.50;;;;;;;-0.28;94.63;99566.37;1741469;81;20996;-64
2021/01/11 08:43:23;;;;;;;24.23;17.10;;;;;;;-0.32;94.70;99562.98;1745931;81;21632;-65
2021/01/11 08:45:56;;;;;;;26.87;17.48;;;;;;;-0.32;94.65;99555.28;1743837;81;21327;-64
2021/01/11 08:48:27;;;;;;;23.02;16.12;;;;;;;-0.31;94.70;99559.57;1722430;81;21666;-65
2021/01/11 08:50:58;;;;;;;21.27;16.20;;;;;;;-0.29;94.71;99560.39;1736901;81;21527;-66
2021/01/11 08:53:32;;;;;;;24.70;16.93;;;;;;;-0.27;94.78;99558.67;1745497;81;21198;-65
2021/01/11 08:56:10;;;;;;;25.48;16.87;;;;;;;-0.17;94.98;99555.61;1742602;81;21665;-66
2021/01/11 08:58:49;;;;;;;25.27;16.05;;;;;;;-0.07;94.87;99564.11;1745645;81;21221;-66
2021/01/11 09:01:25;;;;;;;27.82;17.80;;;;;;;0.05;94.87;99561.45;1758955;80;21072;-66
2021/01/11 09:03:56;;;;;;;23.63;15.60;;;;;;;0.16;94.84;99554.52;1749220;80;21158;-66
2021/01/11 09:06:45;;;;;;;19.42;14.47;;;;;;;0.24;94.83;99558.76;1756107;80;21162;-66
2021/01/11 09:09:17;;;;;;;20.82;15.48;;;;;;;0.37;94.87;99557.80;1753017;80;21005;-65
2021/01/11 09:11:47;;;;;;;19.23;14.05;;;;;;;0.44;94.55;99558.15;1755748;80;21259;-66
2021/01/11 09:14:18;;;;;;;22.60;15.40;;;;;;;0.46;94.29;99562.84;1754069;80;21076;-66
2021/01/11 09:16:52;;;;;;;24.40;16.35;;;;;;;0.45;94.09;99566.30;1756396;80;21174;-66
2021/01/11 09:19:21;;;;;;;22.73;16.73;;;;;;;0.48;94.22;99563.70;1741714;81;21162;-66
2021/01/11 09:22:06;;;;;;;21.75;16.52;;;;;;;0.51;94.22;99566.23;1751867;80;21199;-66
2021/01/11 09:24:34;;;;;;;23.18;16.10;;;;;;;0.56;94.31;99567.45;1756100;80;21391;-66
2021/01/11 09:27:02;;;;;;;23.07;15.48;;;;;;;0.60;94.33;99563.57;1758674;80;21578;-66
2021/01/11 09:29:29;;;;;;;21.87;15.75;;;;;;;0.64;94.22;99570.41;1751500;81;21218;-65
2021/01/11 09:31:56;;;;;;;20.37;15.53;;;;;;;0.70;94.22;99566.05;1748886;81;21653;-66
2021/01/11 09:34:23;;;;;;;20.68;14.35;;;;;;;0.72;94.16;99566.89;1757957;80;21203;-65
2021/01/11 09:36:50;;;;;;;20.80;14.80;;;;;;;0.71;93.81;99565.20;1755992;80;21319;-66
2021/01/11 09:39:17;;;;;;;20.32;13.88;;;;;;;0.64;93.90;99566.55;1762136;80;21155;-65
2021/01/11 09:41:51;;;;;;;19.75;15.20;;;;;;;0.68;93.98;99562.66;1753084;80;21658;-65
2021/01/11 09:44:21;;;;;;;20.75;15.93;;;;;;;0.71;94.13;99561.34;1709085;82;21598;-66
2021/01/11 09:46:55;;;;;;;19.40;15.58;;;;;;;0.78;94.16;99560.40;1697299;83;21586;-66
2021/01/11 09:49:26;;;;;;;18.50;15.05;;;;;;;0.80;94.06;99562.53;1686730;83;21683;-66
2021/01/11 09:51:54;;;;;;;21.00;14.55;;;;;;;0.84;93.95;99565.47;1715722;82;21179;-66
2021/01/11 09:54:22;;;;;;;17.15;13.72;;;;;;;0.85;94.00;99569.33;1686256;83;21222;-66
2021/01/11 09:56:52;;;;;;;19.90;14.50;;;;;;;0.89;93.98;99562.42;1722175;82;21044;-66
2021/01/11 09:59:20;;;;;;;18.45;14.25;;;;;;;0.90;93.93;99553.86;1722256;81;21259;-66
2021/01/11 10:01:49;;;;;;;19.12;14.63;;;;;;;0.91;93.86;99563.27;1722479;82;21235;-66
2021/01/11 10:04:18;;;;;;;18.77;14.53;;;;;;;0.92;93.77;99557.25;1701206;83;21832;-66
2021/01/11 10:06:53;;;;;;;17.12;13.00;;;;;;;0.98;93.94;99554.63;1698232;83;21211;-66
2021/01/11 10:09:24;;;;;;;19.92;13.85;;;;;;;1.07;94.09;99551.95;1724510;83;21127;-66
2021/01/11 10:11:55;;;;;;;22.07;14.90;;;;;;;1.08;93.83;99551.07;1719516;82;21140;-66
2021/01/11 10:14:23;;;;;;;20.82;14.85;;;;;;;1.08;93.88;99548.50;1721451;81;21214;-66
2021/01/11 10:16:51;;;;;;;20.52;15.15;;;;;;;1.09;93.67;99552.80;1720343;81;21132;-66
2021/01/11 10:19:26;;;;;;;19.90;15.23;;;;;;;1.03;93.59;99551.55;1690402;83;21198;-64
2021/01/11 10:21:59;;;;;;;23.05;15.88;;;;;;;1.00;93.66;99552.88;1688956;83;21053;-64
2021/01/11 10:24:26;;;;;;;21.02;14.58;;;;;;;0.96;93.61;99544.80;1697006;83;22285;-64
2021/01/11 10:26:54;;;;;;;22.95;14.90;;;;;;;0.96;93.76;99555.08;1681535;82;26558;-65
2021/01/11 10:29:24;;;;;;;25.08;17.57;;;;;;;0.94;93.62;99537.52;1690034;83;23831;-65
2021/01/11 10:31:52;;;;;;;24.07;16.67;;;;;;;0.87;93.66;99541.05;1689866;83;21187;-64
2021/01/11 10:34:22;;;;;;;25.97;17.15;;;;;;;0.89;93.78;99542.70;1720834;82;21218;-64
2021/01/11 10:36:55;;;;;;;28.32;17.20;;;;;;;0.93;93.94;99542.70;1717612;81;21139;-64
2021/01/11 10:39:25;;;;;;;22.15;16.67;;;;;;;1.03;94.31;99536.13;1716244;81;21215;-64
2021/01/11 10:41:56;;;;;;;22.77;16.55;;;;;;;1.05;94.05;99540.83;1715027;82;20966;-64
2021/01/11 10:44:25;;;;;;;20.75;16.30;;;;;;;1.08;94.05;99527.92;1683381;84;21207;-64
2021/01/11 10:46:54;;;;;;;26.27;18.17;;;;;;;1.14;94.07;99536.44;1702927;82;21142;-64
2021/01/11 10:49:22;;;;;;;26.85;18.27;;;;;;;1.16;93.92;99539.86;1698844;82;21143;-64
2021/01/11 10:51:49;;;;;;;27.93;17.75;;;;;;;1.21;93.92;99531.66;1704101;82;21225;-64
2021/01/11 10:54:17;;;;;;;27.85;18.12;;;;;;;1.24;93.93;99528.61;1687727;82;21254;-65
2021/01/11 10:56:45;;;;;;;26.70;18.23;;;;;;;1.29;93.86;99531.13;1701882;82;21226;-64
2021/01/11 10:59:13;;;;;;;24.55;17.48;;;;;;;1.29;93.62;99528.55;1714687;81;21250;-65
2021/01/11 11:01:41;;;;;;;23.85;18.00;;;;;;;1.28;93.63;99528.13;1727953;82;21578;-65
2021/01/11 11:04:09;;;;;;;25.12;16.90;;;;;;;1.32;93.74;99520.80;1728150;82;22093;-64
2021/01/11 11:06:37;;;;;;;24.07;16.45;;;;;;;1.41;93.83;99514.68;1727097;82;21563;-65
2021/01/11 11:09:05;;;;;;;24.55;15.70;;;;;;;1.47;93.71;99515.44;1723843;82;21064;-65
2021/01/11 11:11:35;;;;;;;23.35;16.52;;;;;;;1.47;93.58;99516.72;1722422;82;20950;-64
2021/01/11 11:14:02;;;;;;;21.45;15.88;;;;;;;1.45;93.52;99508.16;1714610;83;21037;-65
2021/01/11 11:16:29;;;;;;;22.37;15.20;;;;;;;1.40;93.31;99498.81;1719874;82;21685;-64
2021/01/11 11:18:56;;;;;;;28.05;16.10;;;;;;;1.34;93.54;99497.17;1712105;83;21172;-66
2021/01/11 11:21:23;;;;;;;22.13;16.02;;;;;;;1.27;93.39;99504.57;1712808;82;21603;-66
2021/01/11 11:23:50;;;;;;;24.25;14.47;;;;;;;1.24;93.66;99502.03;1715217;82;21190;-66
2021/01/11 11:26:22;;;;;;;24.65;15.88;;;;;;;1.17;93.44;99502.97;1721792;82;21038;-67
2021/01/11 11:28:49;;;;;;;22.42;14.13;;;;;;;1.13;93.58;99503.89;1681422;82;21229;-66
2021/01/11 11:31:19;;;;;;;23.27;16.70;;;;;;;1.15;93.69;99499.56;1729086;81;21171;-66
2021/01/11 11:33:46;;;;;;;26.35;16.50;;;;;;;1.14;93.74;99500.44;1704903;82;21288;-66
2021/01/11 11:36:13;;;;;;;24.75;16.37;;;;;;;1.16;93.80;99491.00;1716465;82;21615;-66
2021/01/11 11:38:40;;;;;;;22.67;14.70;;;;;;;1.18;93.85;99491.84;1695166;82;21167;-66
2021/01/11 11:41:08;;;;;;;19.70;14.60;;;;;;;1.24;93.89;99490.02;1699041;82;21424;-66
2021/01/11 11:43:35;;;;;;;22.07;14.80;;;;;;;1.25;93.83;99483.16;1699272;83;21246;-66